Time;durP1;ratioP1;P1;durP2;ratioP2;P2;SDS_P1;SDS_P2;PMS_P1;PMS_P2;Temp;Humidity;BMP_temperature;BMP_pressure;BME280_temperature;BME280_humidity;BME280_pressure;Samples;Min_cycle;Max_cycle;Signal;HPM_P1;HPM_P2
2024/04/25 00:01:39;;;;;;;9.30;4.47;;;;;;;19.28;44.97;99750.42;2268412;78;50632;-78
2024/04/25 00:04:41;;;;;;;7.95;4.47;;;;;;;19.29;44.95;99752.05;2280544;78;51392;-79
2024/04/25 00:07:43;;;;;;;6.22;4.47;;;;;;;19.28;44.96;99752.58;2268312;77;51364;-79
2024/04/25 00:10:51;;;;;;;10.35;4.60;;;;;;;19.28;44.97;99743.72;2227380;78;50996;-79
2024/04/25 00:13:56;;;;;;;6.72;4.53;;;;;;;19.26;45.01;99734.52;2279967;77;50789;-80
2024/04/25 00:16:58;;;;;;;5.30;4.12;;;;;;;19.27;45.01;99728.67;2280359;76;50907;-80
2024/04/25 00:20:01;;;;;;;8.45;4.45;;;;;;;19.26;45.06;99733.70;2268323;78;50049;-80
2024/04/25 00:23:03;;;;;;;7.85;4.53;;;;;;;19.25;45.09;99732.88;2280633;76;51557;-80
2024/04/25 00:26:05;;;;;;;8.40;4.47;;;;;;;19.25;45.08;99730.20;2227168;76;50611;-78
2024/04/25 00:29:07;;;;;;;9.03;4.62;;;;;;;19.25;45.11;99735.57;2279792;78;51404;-78
2024/04/25 00:32:09;;;;;;;7.00;3.95;;;;;;;19.25;45.07;99739.59;2279610;78;51623;-77
2024/04/25 00:35:12;;;;;;;7.87;4.00;;;;;;;19.25;45.04;99738.25;2267185;78;51047;-78
2024/04/25 00:38:14;;;;;;;6.53;4.33;;;;;;;19.24;45.02;99733.94;2250980;78;51525;-77
2024/04/25 00:41:16;;;;;;;12.18;4.45;;;;;;;19.25;45.00;99742.27;2279822;78;50340;-78
2024/04/25 00:44:18;;;;;;;7.00;3.90;;;;;;;19.25;44.98;99735.57;2267744;78;51294;-79
2024/04/25 00:47:23;;;;;;;8.53;3.72;;;;;;;19.25;44.99;99734.75;2267472;77;50320;-78
2024/04/25 00:50:26;;;;;;;9.80;4.15;;;;;;;19.24;45.00;99730.41;2279927;78;50409;-78
2024/04/25 00:53:29;;;;;;;6.35;3.92;;;;;;;19.23;45.06;99722.88;2279895;78;50439;-78
2024/04/25 00:56:31;;;;;;;7.85;4.60;;;;;;;19.24;45.02;99719.18;2267597;76;51481;-78
2024/04/25 00:59:34;;;;;;;5.35;3.77;;;;;;;19.23;45.05;99720.20;2267688;78;51519;-77
2024/04/25 01:02:36;;;;;;;7.53;3.90;;;;;;;19.22;45.01;99711.86;2279879;78;50214;-78
2024/04/25 01:05:38;;;;;;;6.65;3.92;;;;;;;19.23;45.03;99720.20;2279522;76;50708;-77
2024/04/25 01:08:41;;;;;;;6.00;3.80;;;;;;;19.22;45.06;99712.37;2267430;78;49666;-78
2024/04/25 01:11:43;;;;;;;7.45;4.10;;;;;;;19.21;45.05;99714.21;2279703;78;50354;-78
2024/04/25 01:14:45;;;;;;;7.28;3.80;;;;;;;19.23;45.03;99726.08;2279838;78;50709;-78
2024/04/25 01:17:47;;;;;;;6.83;3.90;;;;;;;19.22;45.04;99717.22;2279497;76;51506;-78
2024/04/25 01:20:49;;;;;;;9.08;4.25;;;;;;;19.22;45.03;99711.86;2279835;78;51588;-78
2024/04/25 01:23:52;;;;;;;6.30;4.50;;;;;;;19.22;44.99;99707.02;2267497;78;52923;-78
2024/04/25 01:26:56;;;;;;;5.17;3.83;;;;;;;19.21;44.98;99712.88;2267352;77;50984;-77
2024/04/25 01:29:58;;;;;;;6.03;3.72;;;;;;;19.20;44.99;99704.53;2279622;77;51659;-77
2024/04/25 01:33:01;;;;;;;7.33;4.05;;;;;;;19.21;44.97;99708.84;2267695;78;50996;-77
2024/04/25 01:36:03;;;;;;;10.98;4.60;;;;;;;19.21;44.93;99700.80;2279768;76;50793;-78
2024/04/25 01:39:06;;;;;;;7.10;4.50;;;;;;;19.20;44.93;99701.84;2279958;78;52242;-78
2024/04/25 01:42:08;;;;;;;4.08;3.42;;;;;;;19.22;44.91;99705.16;2267653;78;51601;-78
2024/04/25 01:45:10;;;;;;;7.72;4.30;;;;;;;19.22;44.91;99699.79;2279618;78;51470;-78
2024/04/25 01:48:12;;;;;;;6.97;3.80;;;;;;;19.22;44.89;99703.00;2267559;77;52562;-78
2024/04/25 01:51:15;;;;;;;5.37;3.67;;;;;;;19.22;44.90;99705.67;2250842;78;50403;-78
2024/04/25 01:54:17;;;;;;;7.87;3.87;;;;;;;19.20;44.90;99705.88;2279629;77;50611;-78
2024/04/25 01:57:19;;;;;;;6.15;4.00;;;;;;;19.20;44.94;99701.84;2226463;78;52654;-78
2024/04/25 02:00:22;;;;;;;6.70;3.72;;;;;;;19.20;44.96;99711.23;2279654;77;51475;-78
2024/04/25 02:03:24;;;;;;;7.62;4.10;;;;;;;19.20;44.98;99700.51;2279658;77;50358;-78
2024/04/25 02:06:26;;;;;;;5.80;3.50;;;;;;;19.18;44.98;99703.91;2279379;76;51550;-78
2024/04/25 02:09:28;;;;;;;6.35;4.10;;;;;;;19.18;45.00;99703.09;2279660;78;50210;-78
2024/04/25 02:12:30;;;;;;;9.78;4.10;;;;;;;19.18;45.00;99701.23;2267615;78;49629;-78
2024/04/25 02:15:33;;;;;;;6.50;3.90;;;;;;;19.18;45.00;99698.55;2250777;78;50395;-77
2024/04/25 02:18:35;;;;;;;8.70;3.80;;;;;;;19.17;45.01;99700.12;2279573;76;50618;-78
2024/04/25 02:28:11;;;;;;;6.87;3.72;;;;;;;19.16;45.00;99692.56;2280511;76;22378;-79
2024/04/25 02:31:16;;;;;;;4.47;3.62;;;;;;;19.18;44.95;99688.34;2251224;78;50129;-79
2024/04/25 02:34:17;;;;;;;4.95;3.22;;;;;;;19.16;44.97;99687.20;2280231;77;22420;-79
2024/04/25 02:37:19;;;;;;;4.40;3.50;;;;;;;19.15;44.97;99685.56;2226698;78;50925;-79
2024/04/25 02:40:21;;;;;;;4.60;3.62;;;;;;;19.16;44.92;99691.22;2250886;78;51487;-79
2024/04/25 02:43:23;;;;;;;5.17;3.62;;;;;;;19.15;44.94;99694.95;2280003;78;51636;-79
2024/04/25 02:46:25;;;;;;;5.28;3.65;;;;;;;19.15;44.93;99696.29;2267670;76;49278;-79
2024/04/25 02:49:27;;;;;;;7.17;3.52;;;;;;;19.15;44.97;99682.89;2280009;78;50227;-79
2024/04/25 02:52:30;;;;;;;6.72;3.92;;;;;;;19.14;44.98;99691.98;2279998;78;50357;-79
2024/04/25 02:55:32;;;;;;;8.83;3.50;;;;;;;19.14;45.00;99682.59;2279916;78;50708;-79
2024/04/25 02:58:34;;;;;;;7.90;3.37;;;;;;;19.14;45.04;99687.95;2268042;77;50649;-79
2024/04/25 03:01:37;;;;;;;5.15;3.33;;;;;;;19.13;45.03;99688.45;2267862;78;51708;-80
2024/04/25 03:04:40;;;;;;;8.43;3.40;;;;;;;19.15;45.03;99686.91;2279958;78;50770;-79
2024/04/25 03:07:42;;;;;;;9.33;3.87;;;;;;;19.14;45.01;99689.30;2279816;76;50253;-79
2024/04/25 03:10:44;;;;;;;10.32;3.52;;;;;;;19.13;45.01;99691.13;2267967;78;51296;-79
2024/04/25 03:13:46;;;;;;;6.40;3.72;;;;;;;19.13;45.00;99684.42;2267834;78;49532;-79
2024/04/25 03:16:48;;;;;;;8.70;3.75;;;;;;;19.13;45.01;99683.61;2279649;76;50692;-78
2024/04/25 03:19:50;;;;;;;8.23;3.60;;;;;;;19.13;44.99;99680.92;2279898;78;51592;-79
2024/04/25 03:22:53;;;;;;;17.00;3.72;;;;;;;19.11;45.03;99684.33;2279878;78;51833;-79
2024/04/25 03:25:55;;;;;;;11.35;4.15;;;;;;;19.12;45.00;99683.31;2267710;76;51686;-79
2024/04/25 03:28:57;;;;;;;6.33;3.15;;;;;;;19.13;44.98;99684.95;2280046;78;50352;-79
2024/04/25 03:31:59;;;;;;;8.25;3.58;;;;;;;19.12;44.95;99685.99;2280003;78;50326;-78
2024/04/25 03:35:01;;;;;;;8.95;3.67;;;;;;;19.12;44.95;99683.31;2279819;78;50344;-79
2024/04/25 03:38:04;;;;;;;6.92;3.52;;;;;;;19.11;44.93;99679.81;2279869;76;50673;-79
2024/04/25 03:41:06;;;;;;;8.35;3.02;;;;;;;19.11;44.95;99684.33;2227407;78;51458;-78
2024/04/25 03:44:08;;;;;;;7.10;2.87;;;;;;;19.11;44.96;99690.53;2280061;78;51488;-79
2024/04/25 03:47:11;;;;;;;8.75;3.40;;;;;;;19.11;44.96;99687.86;2279799;76;50633;-79
2024/04/25 03:50:13;;;;;;;9.55;3.33;;;;;;;19.11;44.96;99687.00;2268100;78;51046;-79
2024/04/25 03:53:15;;;;;;;8.55;3.08;;;;;;;19.11;44.96;99687.00;2267838;78;50748;-80
2024/04/25 03:56:17;;;;;;;5.47;3.47;;;;;;;19.10;44.97;99686.71;2267609;76;51462;-78
2024/04/25 03:59:19;;;;;;;6.35;3.10;;;;;;;19.10;44.94;99683.50;2267943;78;50104;-78
2024/04/25 04:02:22;;;;;;;7.42;3.42;;;;;;;19.09;45.00;99683.21;2279824;78;50733;-78
2024/04/25 04:05:24;;;;;;;7.95;3.33;;;;;;;19.09;44.97;99693.12;2268014;78;50279;-78
2024/04/25 04:08:27;;;;;;;7.00;3.20;;;;;;;19.10;44.97;99688.05;2280023;76;51521;-78
2024/04/25 04:11:29;;;;;;;9.95;3.50;;;;;;;19.09;44.98;99683.73;2280279;78;50739;-79
2024/04/25 04:14:31;;;;;;;4.65;3.00;;;;;;;19.08;44.96;99688.25;2267878;78;51076;-79
2024/04/25 04:17:34;;;;;;;9.70;2.98;;;;;;;19.08;44.98;99683.41;2279821;76;51557;-78
2024/04/25 04:20:36;;;;;;;6.90;3.05;;;;;;;19.09;44.96;99681.05;2280202;78;51511;-78
2024/04/25 04:23:38;;;;;;;8.30;3.10;;;;;;;19.10;44.88;99684.84;2203326;78;49551;-78
2024/04/25 04:26:40;;;;;;;8.68;3.47;;;;;;;19.09;44.96;99687.76;2279976;76;50374;-79
2024/04/25 04:29:42;;;;;;;10.50;3.50;;;;;;;19.09;45.03;99681.05;2280110;77;50610;-78
2024/04/25 04:32:44;;;;;;;10.85;3.47;;;;;;;19.09;45.02;99689.09;2280552;78;51631;-80
2024/04/25 04:35:47;;;;;;;11.05;3.60;;;;;;;19.08;45.04;99690.94;2280291;76;50680;-80
2024/04/25 04:38:49;;;;;;;13.08;3.42;;;;;;;19.09;45.03;99681.05;2268456;76;50983;-79
2024/04/25 04:41:51;;;;;;;11.20;3.55;;;;;;;19.09;44.97;99685.08;2280425;78;50751;-79
2024/04/25 04:44:53;;;;;;;12.70;4.00;;;;;;;19.09;45.09;99687.76;2280586;78;50692;-78
2024/04/25 04:47:55;;;;;;;18.02;4.17;;;;;;;19.11;45.04;99695.90;2227337;78;50111;-79
2024/04/25 04:50:58;;;;;;;19.20;4.58;;;;;;;19.09;45.14;99695.28;2279950;78;50421;-78
2024/04/25 04:54:00;;;;;;;18.45;4.00;;;;;;;19.09;45.24;99698.48;2279923;78;50197;-78
2024/04/25 04:57:02;;;;;;;27.90;5.12;;;;;;;19.10;45.79;99701.45;2279879;76;50703;-78
2024/04/25 05:00:05;;;;;;;15.18;4.45;;;;;;;19.10;46.10;99698.78;2227001;76;51521;-77
2024/04/25 05:03:08;;;;;;;17.32;3.98;;;;;;;19.10;46.42;99704.95;2277497;76;49561;-79
2024/04/25 05:06:10;;;;;;;13.98;4.58;;;;;;;19.11;46.31;99701.27;2277248;76;52207;-78
2024/04/25 05:09:12;;;;;;;15.08;3.98;;;;;;;19.12;46.30;99703.42;2271798;78;50790;-78
2024/04/25 05:12:14;;;;;;;12.33;3.77;;;;;;;19.12;46.23;99698.06;2308526;75;49630;-78
2024/04/25 05:15:16;;;;;;;17.55;4.17;;;;;;;19.13;46.27;99706.40;2301561;76;50500;-78
2024/04/25 05:18:19;;;;;;;12.75;4.22;;;;;;;19.12;46.37;99702.90;2277459;76;51456;-77
2024/04/25 05:21:21;;;;;;;14.87;3.90;;;;;;;19.14;46.33;99708.06;2316220;76;51494;-78
2024/04/25 05:24:23;;;;;;;19.62;4.90;;;;;;;19.13;46.46;99704.53;2318072;76;51591;-77
2024/04/25 05:27:25;;;;;;;26.90;4.97;;;;;;;19.16;46.25;99711.34;2292281;76;50284;-76
2024/04/25 05:30:27;;;;;;;29.98;4.92;;;;;;;19.17;46.30;99700.94;2288808;76;49562;-78
2024/04/25 05:33:29;;;;;;;18.73;4.65;;;;;;;19.20;47.00;99708.55;2316533;76;50704;-78
2024/04/25 05:36:32;;;;;;;22.45;4.55;;;;;;;19.23;47.73;99705.97;2317764;76;51501;-77
2024/04/25 05:39:34;;;;;;;21.48;4.45;;;;;;;19.25;47.42;99703.91;2301908;76;51486;-77
2024/04/25 05:42:36;;;;;;;16.32;4.00;;;;;;;19.24;47.25;99705.77;2279569;78;52306;-77
2024/04/25 05:45:38;;;;;;;13.80;4.28;;;;;;;19.27;46.89;99708.55;2267656;77;50145;-78
2024/04/25 05:48:41;;;;;;;16.93;3.70;;;;;;;19.25;46.83;99707.93;2279926;78;51576;-78
2024/04/25 05:51:43;;;;;;;15.53;4.40;;;;;;;19.23;46.72;99706.79;2279793;78;50772;-78
2024/04/25 05:54:45;;;;;;;24.25;4.37;;;;;;;19.23;46.57;99710.81;2275161;78;51571;-78
2024/04/25 05:57:48;;;;;;;29.72;5.65;;;;;;;19.22;46.56;99710.52;2279627;76;50405;-78
2024/04/25 06:00:50;;;;;;;16.70;4.70;;;;;;;19.22;46.48;99705.16;2280149;77;50696;-78
2024/04/25 06:03:52;;;;;;;20.35;4.67;;;;;;;19.21;46.75;99706.17;2306345;75;51396;-77
2024/04/25 06:06:54;;;;;;;25.95;4.28;;;;;;;19.23;46.72;99715.36;2318497;75;51436;-78
2024/04/25 06:09:56;;;;;;;27.62;4.80;;;;;;;19.21;46.65;99714.21;2279681;76;52663;-78
2024/04/25 06:12:59;;;;;;;23.80;5.20;;;;;;;19.22;46.46;99711.04;2319051;76;50687;-78
2024/04/25 06:16:01;;;;;;;18.98;4.67;;;;;;;19.22;46.35;99712.37;2306418;75;50976;-78
2024/04/25 06:19:04;;;;;;;24.75;4.37;;;;;;;19.22;46.27;99709.70;2306569;76;50075;-78
2024/04/25 06:22:06;;;;;;;16.42;4.92;;;;;;;19.22;46.15;99710.52;2318947;76;51574;-79
2024/04/25 06:25:09;;;;;;;23.95;5.42;;;;;;;19.21;46.04;99712.88;2318892;76;51483;-79
2024/04/25 06:28:12;;;;;;;15.48;4.65;;;;;;;19.20;46.00;99712.58;2318979;75;51600;-80
2024/04/25 06:31:15;;;;;;;24.02;4.58;;;;;;;19.18;45.97;99705.25;2306653;76;49590;-79
2024/04/25 06:34:17;;;;;;;23.75;4.37;;;;;;;19.19;45.89;99714.11;2279945;76;52598;-79
2024/04/25 06:37:22;;;;;;;15.03;4.05;;;;;;;19.19;45.85;99720.81;2318761;75;50360;-79
2024/04/25 06:40:24;;;;;;;15.28;4.28;;;;;;;19.17;45.83;99708.98;2319076;76;51533;-80
2024/04/25 06:43:27;;;;;;;12.55;4.00;;;;;;;19.16;45.77;99719.37;2306678;76;52594;-79
2024/04/25 06:46:29;;;;;;;11.65;3.75;;;;;;;19.17;45.72;99713.00;2306854;75;51456;-78
2024/04/25 06:49:31;;;;;;;12.85;4.50;;;;;;;19.16;45.67;99714.02;2306927;76;50594;-79
2024/04/25 06:52:33;;;;;;;14.98;4.10;;;;;;;19.17;45.60;99718.89;2306914;76;50382;-79
2024/04/25 06:55:35;;;;;;;11.25;4.05;;;;;;;19.18;45.53;99722.69;2318854;75;50701;-78
2024/04/25 06:58:39;;;;;;;12.10;3.90;;;;;;;19.16;45.50;99726.08;2306411;76;50998;-79
2024/04/25 07:01:41;;;;;;;13.28;3.92;;;;;;;19.16;45.47;99726.08;2318807;76;50197;-80
2024/04/25 07:04:43;;;;;;;9.78;3.98;;;;;;;19.14;45.47;99724.97;2318721;76;50789;-79
2024/04/25 07:07:46;;;;;;;12.07;4.22;;;;;;;19.14;45.43;99720.95;2306175;76;49555;-79
2024/04/25 07:10:48;;;;;;;8.88;3.62;;;;;;;19.15;45.44;99729.29;2318874;75;50335;-79
2024/04/25 07:13:50;;;;;;;14.28;3.90;;;;;;;19.14;45.42;99726.83;2318826;76;50157;-79
2024/04/25 07:16:52;;;;;;;12.15;3.60;;;;;;;19.13;45.41;99725.17;2318616;75;50428;-79
2024/04/25 07:19:55;;;;;;;11.95;3.98;;;;;;;19.13;45.36;99725.98;2318797;76;50208;-81
2024/04/25 07:22:57;;;;;;;13.28;3.72;;;;;;;19.13;45.33;99722.48;2272013;76;50029;-79
2024/04/25 07:25:59;;;;;;;8.58;3.50;;;;;;;19.14;45.38;99729.52;2293202;76;50882;-79
2024/04/25 07:29:01;;;;;;;11.33;3.75;;;;;;;19.12;45.32;99731.05;2272286;78;50411;-80
2024/04/25 07:32:03;;;;;;;11.97;3.52;;;;;;;19.12;45.32;99729.71;2273728;77;49672;-79
2024/04/25 07:35:06;;;;;;;11.22;3.35;;;;;;;19.13;45.29;99735.89;2272076;78;50741;-79
2024/04/25 07:38:08;;;;;;;15.03;4.08;;;;;;;19.14;45.27;99737.56;2224817;78;51552;-80
2024/04/25 07:41:10;;;;;;;8.85;3.47;;;;;;;19.15;45.27;99733.83;2342370;75;51478;-80
2024/04/25 07:44:13;;;;;;;8.65;3.22;;;;;;;19.15;45.32;99733.83;2280318;77;52384;-80
2024/04/25 07:47:15;;;;;;;10.60;3.60;;;;;;;19.14;45.24;99734.87;2291122;76;50096;-81
2024/04/25 07:50:17;;;;;;;13.08;3.83;;;;;;;19.13;45.18;99730.00;2330986;76;51626;-80
2024/04/25 07:53:24;;;;;;;6.40;3.02;;;;;;;19.14;45.25;99735.70;2329521;76;50757;-80
2024/04/25 07:56:23;;;;;;;7.95;3.40;;;;;;;19.15;45.56;99733.83;2313268;76;22841;-80
2024/04/25 07:59:25;;;;;;;7.62;3.15;;;;;;;19.16;45.59;99739.49;2318861;76;51556;-80
2024/04/25 08:02:27;;;;;;;9.55;3.30;;;;;;;19.18;45.50;99741.98;2318442;76;50200;-80
2024/04/25 08:05:30;;;;;;;12.25;3.60;;;;;;;19.18;45.47;99744.14;2319111;76;50716;-80
2024/04/25 08:08:32;;;;;;;7.42;2.98;;;;;;;19.18;45.41;99744.14;2319117;75;50392;-80
2024/04/25 08:11:34;;;;;;;7.58;2.95;;;;;;;19.17;45.38;99738.48;2287155;76;50949;-80
2024/04/25 08:14:38;;;;;;;9.33;3.02;;;;;;;19.18;45.29;99737.44;2318260;76;51425;-79
2024/04/25 08:17:40;;;;;;;9.25;2.77;;;;;;;19.19;45.27;99739.59;2318571;76;50778;-81
2024/04/25 08:20:43;;;;;;;8.15;2.70;;;;;;;19.17;45.28;99741.16;2286849;76;50845;-80
2024/04/25 08:23:45;;;;;;;7.67;2.75;;;;;;;19.17;45.40;99742.50;2318984;76;50427;-80
2024/04/25 08:26:47;;;;;;;7.25;2.90;;;;;;;19.17;45.23;99741.68;2306745;76;50612;-81
2024/04/25 08:29:49;;;;;;;5.37;2.98;;;;;;;19.17;45.20;99739.00;2318221;76;51598;-80
2024/04/25 08:32:52;;;;;;;8.70;2.83;;;;;;;19.17;45.19;99741.16;2267777;77;51242;-81
2024/04/25 08:35:55;;;;;;;7.92;2.67;;;;;;;19.19;45.16;99744.95;2289510;76;49591;-80
2024/04/25 08:38:57;;;;;;;7.35;2.87;;;;;;;19.18;45.14;99747.34;2286704;76;50711;-80
2024/04/25 08:41:59;;;;;;;7.37;2.95;;;;;;;19.18;45.16;99752.18;2281264;76;51524;-79
2024/04/25 08:45:01;;;;;;;4.70;2.52;;;;;;;19.18;45.10;99748.16;2255416;76;50072;-78
2024/04/25 08:48:04;;;;;;;7.92;2.83;;;;;;;19.18;45.08;99748.16;2296274;76;51375;-79
2024/04/25 08:51:07;;;;;;;5.75;2.55;;;;;;;19.20;45.06;99752.80;2299611;76;50289;-80
2024/04/25 08:54:09;;;;;;;8.23;2.90;;;;;;;19.21;45.03;99746.39;2298802;76;51556;-80
2024/04/25 08:57:11;;;;;;;5.30;2.20;;;;;;;19.22;45.04;99750.74;2272123;77;50758;-79
2024/04/25 09:00:14;;;;;;;3.65;2.42;;;;;;;19.21;45.27;99750.42;2274022;77;50996;-80
2024/04/25 09:03:16;;;;;;;10.13;2.67;;;;;;;19.23;45.46;99747.02;2279966;76;50446;-80
2024/04/25 09:06:18;;;;;;;6.80;3.05;;;;;;;19.22;45.32;99744.56;2272029;78;50698;-80
2024/04/25 09:09:24;;;;;;;8.93;2.87;;;;;;;19.24;45.25;99740.64;2248784;78;51096;-81
2024/04/25 09:12:34;;;;;;;6.85;2.52;;;;;;;19.23;45.22;99736.28;2272159;78;51607;-80
2024/04/25 09:15:33;;;;;;;10.20;2.15;;;;;;;19.24;45.21;99737.95;2271017;78;22444;-79
2024/04/25 09:18:35;;;;;;;4.95;2.77;;;;;;;19.24;45.19;99731.25;2288375;76;50730;-79
2024/04/25 09:21:37;;;;;;;6.72;2.50;;;;;;;19.24;45.18;99740.64;2311297;76;51566;-80
2024/04/25 09:24:41;;;;;;;9.48;2.70;;;;;;;19.25;45.18;99734.23;2277646;76;50481;-80
2024/04/25 09:27:43;;;;;;;7.70;2.40;;;;;;;19.25;45.19;99729.39;2308272;76;52055;-80
2024/04/25 09:30:45;;;;;;;7.42;2.62;;;;;;;19.24;45.10;99729.91;2278314;76;51400;-80
2024/04/25 09:33:47;;;;;;;11.88;2.42;;;;;;;19.24;45.06;99735.77;2253826;77;50771;-79
2024/04/25 09:36:49;;;;;;;9.30;2.50;;;;;;;19.24;45.12;99732.59;2260532;76;49649;-78
2024/04/25 09:39:51;;;;;;;6.85;2.70;;;;;;;19.24;45.02;99730.41;2318600;76;50357;-78
2024/04/25 09:42:54;;;;;;;4.95;2.25;;;;;;;19.24;44.97;99741.98;2318532;76;50406;-79
2024/04/25 09:46:00;;;;;;;6.72;2.45;;;;;;;19.24;44.93;99737.95;2317785;76;50604;-78
2024/04/25 09:49:07;;;;;;;7.15;2.33;;;;;;;19.24;44.94;99735.77;2257857;75;50093;-77
2024/04/25 09:52:22;;;;;;;4.60;2.22;;;;;;;19.23;44.90;99733.61;2282407;76;23268;-79
2024/04/25 09:55:27;;;;;;;4.12;2.30;;;;;;;19.22;44.92;99735.17;2299293;76;51958;-79
2024/04/25 09:58:45;;;;;;;5.08;1.47;;;;;;;19.21;44.90;99735.67;2306437;76;51269;-77
2024/04/25 10:01:47;;;;;;;6.92;2.20;;;;;;;19.21;44.94;99728.96;2318400;76;51552;-77
2024/04/25 10:04:49;;;;;;;4.25;2.05;;;;;;;19.21;44.96;99738.34;2318713;76;52485;-77
2024/04/25 10:07:52;;;;;;;3.27;2.02;;;;;;;19.21;44.92;99730.30;2318776;75;51667;-78
2024/04/25 10:10:54;;;;;;;5.72;2.87;;;;;;;19.24;46.56;99731.25;2318962;76;51363;-78
2024/04/25 10:13:56;;;;;;;7.67;2.65;;;;;;;19.22;47.95;99729.29;2306512;75;52516;-79
2024/04/25 10:16:58;;;;;;;8.60;2.55;;;;;;;19.23;47.19;99729.58;2280403;76;50359;-77
2024/04/25 10:20:00;;;;;;;5.62;2.15;;;;;;;19.25;47.86;99739.59;2318092;75;50770;-77
2024/04/25 10:23:04;;;;;;;7.75;2.72;;;;;;;19.27;48.36;99728.67;2305610;76;49207;-79
2024/04/25 10:26:08;;;;;;;6.00;2.27;;;;;;;19.31;48.36;99742.77;2304520;76;49859;-76
2024/04/25 10:29:10;;;;;;;8.98;2.65;;;;;;;19.32;48.51;99734.23;2304519;76;50388;-78
2024/04/25 10:32:12;;;;;;;9.20;2.40;;;;;;;19.31;48.71;99735.23;2318087;76;50700;-78
2024/04/25 10:35:14;;;;;;;7.92;2.70;;;;;;;19.32;48.37;99739.59;2317349;76;50162;-78
2024/04/25 10:38:23;;;;;;;5.00;1.90;;;;;;;19.31;48.17;99739.27;2283568;76;50053;-78
2024/04/25 10:41:33;;;;;;;7.85;2.42;;;;;;;19.30;48.31;99734.95;2267286;76;52975;-77
2024/04/25 10:44:35;;;;;;;9.15;2.50;;;;;;;19.32;47.99;99737.73;2315159;76;51558;-77
2024/04/25 10:47:38;;;;;;;8.23;2.30;;;;;;;19.33;47.91;99729.97;2291057;76;51071;-77
2024/04/25 10:50:41;;;;;;;6.60;2.30;;;;;;;19.35;47.77;99727.91;2317536;76;51468;-77
2024/04/25 10:53:44;;;;;;;5.15;2.35;;;;;;;19.35;47.69;99715.84;2316048;76;50495;-77
2024/04/25 10:56:46;;;;;;;5.28;2.20;;;;;;;19.37;47.44;99721.01;2315905;76;50331;-77
2024/04/25 10:59:49;;;;;;;3.77;1.98;;;;;;;19.37;47.30;99721.01;2316181;76;50418;-77
2024/04/25 11:02:51;;;;;;;7.00;2.25;;;;;;;19.36;47.17;99725.52;2291979;76;51038;-77
2024/04/25 11:05:55;;;;;;;6.08;2.15;;;;;;;19.35;47.04;99738.64;2291593;76;50769;-77
2024/04/25 11:08:57;;;;;;;7.55;2.50;;;;;;;19.36;46.99;99744.30;2316202;76;50691;-77
2024/04/25 11:12:00;;;;;;;5.87;2.30;;;;;;;19.35;46.97;99746.69;2291243;76;49569;-76
2024/04/25 11:15:02;;;;;;;6.58;2.58;;;;;;;19.38;46.97;99747.31;2316216;76;50218;-77
2024/04/25 11:18:04;;;;;;;5.67;2.60;;;;;;;19.35;46.84;99747.21;2316256;76;50305;-77
2024/04/25 11:21:07;;;;;;;9.38;2.83;;;;;;;19.35;46.70;99750.71;2317932;76;51493;-76
2024/04/25 11:24:14;;;;;;;7.92;3.00;;;;;;;19.35;46.65;99749.37;2316236;76;50386;-76
2024/04/25 11:27:14;;;;;;;;;;;;;;;19.38;46.60;99751.33;2319165;76;22828;-77
2024/04/25 11:30:17;;;;;;;8.98;3.65;;;;;;;19.37;46.64;99759.91;2316491;76;51547;-77
2024/04/25 11:33:27;;;;;;;9.55;3.50;;;;;;;19.40;46.50;99753.30;2316309;76;51709;-76
2024/04/25 11:36:29;;;;;;;10.23;4.00;;;;;;;19.40;46.46;99758.66;2264940;75;51315;-77
2024/04/25 11:39:33;;;;;;;11.60;3.75;;;;;;;19.42;46.41;99751.20;2316189;76;50653;-76
2024/04/25 11:42:36;;;;;;;8.88;3.87;;;;;;;19.42;46.34;99753.39;2317663;76;51556;-77
2024/04/25 11:45:38;;;;;;;11.30;4.00;;;;;;;19.42;46.24;99753.39;2291558;76;50116;-77
2024/04/25 11:48:53;;;;;;;10.25;4.12;;;;;;;19.44;46.23;99755.84;2291812;76;49218;-78
2024/04/25 11:51:55;;;;;;;10.40;4.27;;;;;;;19.44;46.20;99748.62;2316483;76;50665;-77
2024/04/25 11:54:58;;;;;;;12.73;4.40;;;;;;;19.44;46.11;99750.48;2291840;76;50787;-78
2024/04/25 11:58:00;;;;;;;11.70;4.33;;;;;;;19.46;46.05;99749.76;2315913;76;51543;-77
2024/04/25 12:01:02;;;;;;;11.48;4.50;;;;;;;19.48;45.97;99738.30;2288360;76;50099;-77
2024/04/25 12:04:08;;;;;;;10.72;4.05;;;;;;;19.47;45.95;99740.17;2317739;76;51529;-77
2024/04/25 12:07:08;;;;;;;7.50;3.75;;;;;;;19.47;45.84;99740.66;2317473;76;22887;-77
2024/04/25 12:10:10;;;;;;;8.83;4.05;;;;;;;19.48;45.75;99743.67;2291187;76;51033;-77
2024/04/25 12:13:13;;;;;;;10.38;4.17;;;;;;;19.48;45.64;99741.80;2316143;76;51546;-77
2024/04/25 12:16:15;;;;;;;9.18;4.12;;;;;;;19.49;45.54;99731.89;2315982;76;51480;-77
2024/04/25 12:19:17;;;;;;;9.23;3.95;;;;;;;19.51;45.52;99737.88;2316207;76;51550;-76
2024/04/25 12:22:19;;;;;;;11.35;4.45;;;;;;;19.51;45.47;99725.80;2317397;76;53698;-78
2024/04/25 12:25:22;;;;;;;10.75;4.42;;;;;;;19.52;45.52;99725.60;2266413;76;51098;-77
2024/04/25 12:28:24;;;;;;;11.03;4.47;;;;;;;19.56;45.51;99730.02;2292110;76;50673;-77
2024/04/25 12:31:27;;;;;;;14.53;5.12;;;;;;;19.57;45.59;99739.70;2316115;76;52155;-76
2024/04/25 12:34:29;;;;;;;13.55;4.53;;;;;;;19.58;45.60;99727.42;2266604;76;51687;-76
2024/04/25 12:37:31;;;;;;;8.83;3.90;;;;;;;19.57;45.61;99726.28;2315812;75;50773;-76
2024/04/25 12:40:34;;;;;;;7.95;4.15;;;;;;;19.59;45.52;99726.91;2291829;76;51567;-77
2024/04/25 12:43:36;;;;;;;9.68;4.22;;;;;;;19.56;45.65;99731.36;2290313;76;50065;-76
2024/04/25 12:46:40;;;;;;;9.05;4.10;;;;;;;19.58;45.58;99723.41;2315894;76;50258;-77
2024/04/25 12:49:42;;;;;;;8.05;3.87;;;;;;;19.57;45.40;99734.34;2292576;76;25009;-76
2024/04/25 12:52:44;;;;;;;8.55;3.67;;;;;;;19.57;45.28;99728.47;2316051;76;52350;-77
2024/04/25 12:55:48;;;;;;;9.50;3.67;;;;;;;19.58;45.26;99729.30;2315824;76;51478;-77
2024/04/25 12:58:50;;;;;;;6.80;3.40;;;;;;;19.58;45.25;99719.91;2316440;76;22386;-76
2024/04/25 13:01:53;;;;;;;7.75;3.75;;;;;;;19.61;45.04;99724.84;2317732;76;50424;-77
2024/04/25 13:04:55;;;;;;;5.65;2.85;;;;;;;19.60;45.10;99741.98;2316067;76;51530;-78
2024/04/25 13:07:57;;;;;;;8.18;3.30;;;;;;;19.59;44.97;99735.77;2315902;76;51491;-77
2024/04/25 13:10:59;;;;;;;7.50;3.10;;;;;;;19.60;44.88;99737.96;2316061;76;52416;-77
2024/04/25 13:14:02;;;;;;;6.45;2.95;;;;;;;19.58;44.96;99738.69;2291445;76;51023;-77
2024/04/25 13:17:04;;;;;;;8.18;3.35;;;;;;;19.59;44.92;99759.11;2315928;76;50357;-76
2024/04/25 13:20:07;;;;;;;6.62;2.65;;;;;;;19.59;44.91;99759.11;2316118;76;50200;-77
2024/04/25 13:23:09;;;;;;;6.95;3.25;;;;;;;19.61;44.98;99755.70;2265335;76;50557;-76
2024/04/25 13:26:19;;;;;;;8.68;3.58;;;;;;;19.61;44.92;99761.06;2315974;76;50626;-78
2024/04/25 13:29:19;;;;;;;7.90;3.30;;;;;;;19.61;44.87;99750.86;2316024;76;22373;-77
2024/04/25 13:32:21;;;;;;;6.97;3.00;;;;;;;19.61;44.83;99757.05;2316083;76;52283;-76
2024/04/25 13:35:23;;;;;;;7.58;3.22;;;;;;;19.62;44.78;99758.67;2315779;76;50602;-76
2024/04/25 13:38:27;;;;;;;5.80;2.70;;;;;;;19.63;44.71;99758.19;2242139;76;51771;-78
2024/04/25 13:41:29;;;;;;;8.73;2.90;;;;;;;19.63;44.70;99754.16;2316099;76;51508;-77
2024/04/25 13:44:31;;;;;;;4.75;2.33;;;;;;;19.64;44.64;99757.13;2316083;76;51526;-77
2024/04/25 13:47:33;;;;;;;5.87;2.87;;;;;;;19.64;44.66;99760.64;2291342;76;51014;-77
2024/04/25 13:50:36;;;;;;;2.87;2.20;;;;;;;19.66;44.46;99756.41;2266373;76;52140;-76
2024/04/25 13:53:38;;;;;;;3.37;2.00;;;;;;;19.67;44.34;99756.73;2292063;76;50366;-76
2024/04/25 13:56:40;;;;;;;4.35;2.17;;;;;;;19.68;43.71;99749.83;2316081;76;50402;-78
2024/04/25 13:59:42;;;;;;;4.28;2.42;;;;;;;19.72;43.78;99756.92;2291949;76;50722;-77
2024/04/25 14:02:44;;;;;;;4.17;2.05;;;;;;;19.73;43.68;99756.73;2288357;76;52647;-77
2024/04/25 14:05:47;;;;;;;5.05;2.25;;;;;;;19.69;44.15;99765.41;2315898;76;50739;-77
2024/04/25 14:08:49;;;;;;;3.15;1.90;;;;;;;19.67;44.25;99760.77;2316186;76;50316;-76
2024/04/25 14:11:51;;;;;;;4.45;2.30;;;;;;;19.74;43.72;99761.05;2316275;76;50399;-76
2024/04/25 14:14:54;;;;;;;6.42;2.50;;;;;;;19.71;43.90;99770.05;2316204;76;50328;-77
2024/04/25 14:17:56;;;;;;;4.12;1.98;;;;;;;19.68;44.26;99770.45;2316069;76;50626;-77
2024/04/25 14:20:58;;;;;;;4.37;2.00;;;;;;;19.65;44.28;99777.06;2291427;76;51062;-77
2024/04/25 14:24:00;;;;;;;4.90;2.20;;;;;;;19.64;44.25;99780.77;2286448;76;51524;-75